Time;durP1;ratioP1;P1;durP2;ratioP2;P2;SDS_P1;SDS_P2;PMS_P1;PMS_P2;Temp;Humidity;BMP_temperature;BMP_pressure;BME280_temperature;BME280_humidity;BME280_pressure;Samples;Min_cycle;Max_cycle;Signal;HPM_P1;HPM_P2
2022/10/06 00:00:40;;;;;;;2.60;1.90;;;;;;;15.07;75.63;99528.44;5099831;27;41193;-80
2022/10/06 00:03:09;;;;;;;2.20;1.97;;;;;;;15.03;75.64;99521.59;5117797;27;40206;-80
2022/10/06 00:05:37;;;;;;;2.40;2.00;;;;;;;14.94;75.58;99511.56;5135326;27;42076;-80
2022/10/06 00:08:05;;;;;;;2.50;2.30;;;;;;;15.00;75.89;99527.13;5100507;27;41703;-80
2022/10/06 00:10:33;;;;;;;2.50;2.30;;;;;;;14.89;75.97;99517.22;5135420;27;42251;-80
2022/10/06 00:13:01;;;;;;;2.00;1.80;;;;;;;14.80;76.03;99504.53;5117209;27;41766;-80
2022/10/06 00:15:32;;;;;;;2.03;1.83;;;;;;;14.99;76.65;99531.59;5116658;27;43197;-80
2022/10/06 00:18:00;;;;;;;2.77;2.20;;;;;;;14.94;76.41;99524.91;5135629;27;42507;-80
2022/10/06 00:20:30;;;;;;;2.00;1.80;;;;;;;14.87;76.64;99516.47;5116554;27;41489;-80
2022/10/06 00:22:57;;;;;;;3.17;1.83;;;;;;;14.94;76.04;99527.56;5117023;27;40832;-80
2022/10/06 00:25:27;;;;;;;4.33;1.80;;;;;;;14.94;76.10;99532.91;5099910;27;40658;-80
2022/10/06 00:27:54;;;;;;;1.63;1.53;;;;;;;14.96;76.33;99536.31;5116877;27;42826;-80
2022/10/06 00:30:24;;;;;;;3.00;2.30;;;;;;;14.92;76.33;99540.16;5116682;27;41613;-80
2022/10/06 00:32:55;;;;;;;2.43;2.00;;;;;;;14.92;76.61;99537.50;5117087;27;39435;-80
2022/10/06 00:35:24;;;;;;;3.67;2.10;;;;;;;14.92;76.71;99540.16;5114210;27;41748;-80
2022/10/06 00:37:54;;;;;;;3.30;2.10;;;;;;;14.84;76.82;99534.47;5116666;27;42789;-79
2022/10/06 00:40:23;;;;;;;3.10;2.30;;;;;;;14.79;76.83;99517.97;5132193;27;42293;-80
2022/10/06 00:42:54;;;;;;;3.53;2.30;;;;;;;14.74;77.18;99510.28;5099832;27;40003;-80
2022/10/06 00:45:29;;;;;;;2.43;1.90;;;;;;;14.94;77.25;99548.91;5099478;27;41677;-80
2022/10/06 00:48:01;;;;;;;2.47;2.00;;;;;;;14.68;76.95;99510.72;5099699;27;43213;-80
2022/10/06 00:50:30;;;;;;;4.90;2.20;;;;;;;14.60;76.92;99497.88;5098990;27;43706;-80
2022/10/06 00:53:00;;;;;;;3.60;2.33;;;;;;;14.79;76.96;99528.63;5116232;27;39932;-80
2022/10/06 00:55:29;;;;;;;2.00;1.90;;;;;;;14.81;77.20;99532.06;5134583;27;41618;-81
2022/10/06 00:57:58;;;;;;;2.30;2.10;;;;;;;14.92;77.43;99545.50;5134840;27;43064;-80
2022/10/06 01:00:27;;;;;;;2.07;1.87;;;;;;;14.84;77.68;99526.47;5098977;27;42731;-80
2022/10/06 01:02:59;;;;;;;3.80;2.10;;;;;;;14.94;77.28;99543.56;5116392;27;38948;-80
2022/10/06 01:05:30;;;;;;;2.00;1.80;;;;;;;14.83;78.07;99524.81;5098950;27;42361;-80
2022/10/06 01:07:59;;;;;;;2.90;2.70;;;;;;;14.97;77.72;99551.34;5113428;27;44006;-80
2022/10/06 01:10:27;;;;;;;2.77;2.00;;;;;;;14.98;77.42;99548.56;5098894;27;42400;-80
2022/10/06 01:12:56;;;;;;;3.83;1.80;;;;;;;14.98;77.79;99553.06;5116777;27;40875;-80
2022/10/06 01:15:25;;;;;;;3.90;2.63;;;;;;;14.97;77.92;99549.53;5098702;27;41141;-80
2022/10/06 01:17:56;;;;;;;2.13;1.93;;;;;;;14.84;78.49;99529.16;5099319;27;44163;-80
2022/10/06 01:20:25;;;;;;;4.07;2.53;;;;;;;15.00;78.23;99553.81;5131686;27;43327;-80
2022/10/06 01:22:57;;;;;;;3.50;2.20;;;;;;;15.02;78.11;99547.41;5116160;27;39827;-79
2022/10/06 01:25:25;;;;;;;2.63;2.43;;;;;;;15.00;77.83;99548.47;5098973;27;40892;-80
2022/10/06 01:27:55;;;;;;;2.30;2.10;;;;;;;15.02;77.72;99557.22;5098958;27;43454;-80
2022/10/06 01:30:30;;;;;;;2.20;2.00;;;;;;;14.99;77.66;99560.94;5113467;27;43433;-80
2022/10/06 01:32:58;;;;;;;3.27;2.17;;;;;;;14.92;77.56;99558.81;5116479;27;40459;-80
2022/10/06 01:35:26;;;;;;;1.97;1.77;;;;;;;14.94;78.32;99559.59;5115569;27;40627;-80
2022/10/06 01:37:57;;;;;;;3.37;2.27;;;;;;;14.83;78.58;99540.81;5099071;27;41478;-81
2022/10/06 01:40:28;;;;;;;5.23;2.17;;;;;;;14.80;78.41;99530.34;5113466;27;43028;-80
2022/10/06 01:42:57;;;;;;;3.13;2.07;;;;;;;14.96;78.25;99568.34;5098899;27;38977;-80
2022/10/06 01:45:27;;;;;;;2.20;2.00;;;;;;;14.88;78.09;99576.00;5115479;27;41506;-80
2022/10/06 01:47:55;;;;;;;3.40;2.33;;;;;;;14.94;77.91;99596.91;5098772;27;41466;-80
2022/10/06 01:50:23;;;;;;;3.10;2.27;;;;;;;14.92;77.96;99594.34;5115676;27;42515;-80
2022/10/06 01:52:50;;;;;;;2.67;2.30;;;;;;;14.80;78.04;99589.00;5098243;27;38773;-80
2022/10/06 01:55:20;;;;;;;2.13;1.97;;;;;;;14.89;77.77;99609.69;5115543;27;41794;-80
2022/10/06 01:57:49;;;;;;;2.50;2.07;;;;;;;14.81;77.83;99596.06;5098754;27;41819;-80
2022/10/06 02:00:19;;;;;;;2.60;2.17;;;;;;;14.86;78.14;99609.91;5098115;27;42496;-80
2022/10/06 02:02:49;;;;;;;1.93;1.83;;;;;;;14.85;77.80;99613.53;5098721;27;40083;-80
2022/10/06 02:05:17;;;;;;;2.50;2.10;;;;;;;14.83;78.32;99604.81;5098463;27;42142;-80
2022/10/06 02:07:48;;;;;;;3.13;2.30;;;;;;;14.73;78.40;99588.56;5098605;27;41867;-80
2022/10/06 02:10:17;;;;;;;2.23;2.13;;;;;;;14.83;78.39;99612.81;5098395;27;42399;-80
2022/10/06 02:12:52;;;;;;;2.27;1.90;;;;;;;14.82;78.23;99619.09;5098556;27;39133;-81
2022/10/06 02:15:21;;;;;;;2.33;2.10;;;;;;;14.84;78.49;99618.00;5098140;27;42216;-80
2022/10/06 02:17:49;;;;;;;1.77;1.67;;;;;;;14.69;78.31;99590.59;5097794;27;44270;-80
2022/10/06 02:20:17;;;;;;;2.90;2.10;;;;;;;14.86;78.49;99621.44;5098025;27;43441;-80
2022/10/06 02:22:44;;;;;;;4.07;2.10;;;;;;;14.85;78.53;99618.84;5115435;27;39745;-80
2022/10/06 02:25:12;;;;;;;2.37;2.17;;;;;;;14.85;78.89;99618.84;5114979;27;41755;-80
2022/10/06 02:27:40;;;;;;;2.30;2.10;;;;;;;14.74;78.76;99612.44;5115461;27;43784;-79
2022/10/06 02:30:13;;;;;;;2.40;2.00;;;;;;;14.84;79.11;99634.00;5115629;27;42858;-80
2022/10/06 02:32:43;;;;;;;2.70;2.27;;;;;;;14.88;79.51;99635.50;5112302;27;40803;-82
2022/10/06 02:35:13;;;;;;;3.60;2.20;;;;;;;14.92;79.92;99642.38;5115463;27;41604;-80
2022/10/06 02:37:41;;;;;;;4.47;2.33;;;;;;;14.96;79.43;99619.00;5098340;27;41818;-79
2022/10/06 02:40:11;;;;;;;2.43;2.20;;;;;;;15.24;79.16;99636.63;5115208;27;42817;-80
2022/10/06 02:42:39;;;;;;;3.43;2.30;;;;;;;15.35;78.67;99632.25;5098230;27;38791;-80
2022/10/06 02:45:09;;;;;;;4.47;2.50;;;;;;;15.39;78.41;99636.41;5114883;27;42455;-80
2022/10/06 02:47:38;;;;;;;2.40;2.20;;;;;;;15.52;77.92;99647.09;5114893;27;43673;-80
2022/10/06 02:50:08;;;;;;;2.90;2.30;;;;;;;15.49;77.91;99636.63;5114632;27;42109;-80
2022/10/06 02:52:41;;;;;;;2.30;2.07;;;;;;;15.66;77.74;99660.38;5098077;27;39453;-80
2022/10/06 02:55:10;;;;;;;2.40;2.10;;;;;;;15.74;77.50;99660.66;5111879;27;41513;-80
2022/10/06 02:57:38;;;;;;;2.47;2.10;;;;;;;15.79;77.11;99665.69;5115013;27;43234;-80
2022/10/06 03:00:08;;;;;;;2.50;2.30;;;;;;;15.75;76.96;99649.03;5097625;27;41199;-80
2022/10/06 03:02:36;;;;;;;2.97;2.30;;;;;;;15.85;77.25;99673.25;5097738;27;40105;-80
2022/10/06 03:05:07;;;;;;;2.97;2.20;;;;;;;15.77;77.08;99656.94;5114619;27;42685;-80
2022/10/06 03:07:35;;;;;;;2.27;2.07;;;;;;;15.82;77.06;99659.28;5114708;27;43036;-80
2022/10/06 03:10:03;;;;;;;2.40;2.03;;;;;;;15.95;76.89;99687.66;5097711;27;41176;-80
2022/10/06 03:12:33;;;;;;;4.50;1.93;;;;;;;15.98;76.64;99682.09;5097849;27;40274;-80
2022/10/06 03:15:00;;;;;;;3.53;2.40;;;;;;;15.93;76.57;99667.38;5114648;27;41764;-80
2022/10/06 03:17:28;;;;;;;4.67;2.07;;;;;;;16.06;76.54;99690.44;5114734;27;42559;-80
2022/10/06 03:19:58;;;;;;;3.70;2.20;;;;;;;16.10;76.52;99697.25;5097286;27;41177;-81
2022/10/06 03:22:28;;;;;;;2.77;1.90;;;;;;;16.15;76.01;99694.28;5097750;27;39906;-80
2022/10/06 03:24:58;;;;;;;2.83;2.20;;;;;;;16.19;76.09;99703.78;5111218;27;41577;-80
2022/10/06 03:27:26;;;;;;;2.33;2.00;;;;;;;16.10;75.74;99678.56;5097379;27;41387;-80
2022/10/06 03:29:58;;;;;;;5.27;2.73;;;;;;;16.28;75.77;99703.09;5097085;27;42716;-80
2022/10/06 03:32:28;;;;;;;3.60;2.27;;;;;;;16.32;75.79;99711.78;5118016;27;40663;-80
2022/10/06 03:34:55;;;;;;;3.87;2.47;;;;;;;16.29;75.59;99703.97;5100636;27;42790;-80
2022/10/06 03:37:23;;;;;;;2.67;2.43;;;;;;;16.38;75.88;99724.66;5100711;27;41794;-79
2022/10/06 03:39:53;;;;;;;3.77;2.57;;;;;;;16.36;75.87;99713.22;5100404;27;41452;-81
2022/10/06 03:42:21;;;;;;;2.63;1.97;;;;;;;16.45;75.42;99733.94;5136040;27;41075;-80
2022/10/06 03:44:49;;;;;;;2.97;2.13;;;;;;;16.46;75.36;99730.31;5117766;27;42811;-79
2022/10/06 03:47:18;;;;;;;3.00;2.07;;;;;;;16.52;75.34;99725.38;5117559;27;42891;-79
2022/10/06 03:49:46;;;;;;;2.30;2.10;;;;;;;16.57;75.39;99743.75;5100776;27;42323;-80
2022/10/06 03:52:16;;;;;;;2.70;2.33;;;;;;;16.61;75.13;99737.22;5117138;27;39980;-79
2022/10/06 03:54:44;;;;;;;2.27;2.07;;;;;;;16.63;75.19;99738.00;5100452;27;43232;-80
2022/10/06 03:57:13;;;;;;;2.73;2.03;;;;;;;16.55;75.24;99718.97;5135710;27;43543;-80
2022/10/06 03:59:41;;;;;;;2.43;1.90;;;;;;;16.68;74.68;99740.34;5100308;27;42065;-80
2022/10/06 04:02:10;;;;;;;2.87;2.40;;;;;;;16.73;74.57;99743.53;5099714;27;40016;-80
2022/10/06 04:04:38;;;;;;;2.37;1.63;;;;;;;16.75;74.52;99749.63;5100110;27;43084;-80
2022/10/06 04:07:11;;;;;;;2.40;2.20;;;;;;;16.77;74.64;99753.91;5100091;27;42962;-80
2022/10/06 04:09:40;;;;;;;2.43;2.03;;;;;;;16.70;74.26;99741.91;5099975;27;42372;-81
2022/10/06 04:12:09;;;;;;;3.23;2.10;;;;;;;16.76;74.19;99754.00;5117136;27;39739;-80
2022/10/06 04:14:40;;;;;;;2.40;2.00;;;;;;;16.82;74.19;99765.09;5099968;27;40884;-80
2022/10/06 04:17:09;;;;;;;2.10;1.90;;;;;;;16.82;74.23;99770.44;5099831;27;43111;-80
2022/10/06 04:19:39;;;;;;;2.23;1.77;;;;;;;16.73;74.43;99760.44;5100521;27;40915;-80
2022/10/06 04:22:08;;;;;;;5.73;2.57;;;;;;;16.72;75.02;99774.75;5116882;27;39669;-82
2022/10/06 04:24:36;;;;;;;4.00;2.37;;;;;;;16.80;75.30;99793.81;5100038;27;43213;-81
2022/10/06 04:30:01;;;;;;;4.17;2.57;;;;;;;16.87;76.35;99792.38;5115126;27;42310;-80
2022/10/06 04:32:28;;;;;;;4.53;2.70;;;;;;;16.91;77.03;99801.03;5119278;27;41970;-80
2022/10/06 04:34:56;;;;;;;7.47;2.60;;;;;;;16.94;76.71;99805.31;5100809;27;42867;-80
2022/10/06 04:37:27;;;;;;;3.90;2.73;;;;;;;16.98;77.05;99814.81;5100588;27;41668;-80
2022/10/06 04:39:55;;;;;;;2.73;2.50;;;;;;;16.98;77.79;99812.13;5135655;27;43218;-78
2022/10/06 04:42:22;;;;;;;3.60;2.10;;;;;;;16.99;78.47;99816.53;5116640;27;40750;-80
2022/10/06 04:44:50;;;;;;;4.53;2.33;;;;;;;17.00;78.33;99827.13;5099636;27;40786;-81
2022/10/06 04:47:19;;;;;;;2.80;2.27;;;;;;;16.96;78.11;99835.47;5099766;27;41689;-80
2022/10/06 04:49:48;;;;;;;5.27;2.00;;;;;;;16.91;78.62;99849.22;5099549;27;41341;-80
2022/10/06 04:52:16;;;;;;;3.03;2.63;;;;;;;16.80;80.37;99852.66;5116177;27;40864;-80
2022/10/06 04:54:44;;;;;;;3.00;2.10;;;;;;;16.67;81.25;99848.31;5099344;27;40863;-80
2022/10/06 04:57:12;;;;;;;2.40;2.03;;;;;;;16.59;81.17;99845.25;5116445;27;42803;-80
2022/10/06 05:02:30;;;;;;;2.93;1.73;;;;;;;16.27;82.41;99852.91;5113305;27;40238;-80
2022/10/06 05:04:58;;;;;;;1.50;1.40;;;;;;;16.27;82.29;99875.16;5112841;27;41682;-81
2022/10/06 05:07:26;;;;;;;1.53;1.30;;;;;;;16.20;82.24;99883.69;5099219;27;41745;-80
2022/10/06 05:09:56;;;;;;;1.73;1.13;;;;;;;16.12;82.30;99887.75;5099125;27;42690;-80
2022/10/06 05:12:24;;;;;;;1.80;1.10;;;;;;;16.03;82.07;99893.75;5099414;27;41892;-79
2022/10/06 05:14:52;;;;;;;2.40;1.20;;;;;;;16.00;81.83;99915.31;5116490;27;41729;-80
2022/10/06 05:17:19;;;;;;;2.37;1.00;;;;;;;15.83;81.88;99899.56;5099155;27;43940;-79
2022/10/06 05:19:50;;;;;;;1.00;0.90;;;;;;;15.82;82.32;99912.06;5115952;27;42544;-79
2022/10/06 05:22:18;;;;;;;1.30;0.63;;;;;;;15.68;82.96;99904.13;5115984;27;40851;-79
2022/10/06 05:24:46;;;;;;;0.80;0.80;;;;;;;15.67;82.13;99917.59;5099143;27;40564;-81
2022/10/06 05:27:13;;;;;;;1.70;1.00;;;;;;;15.66;81.62;99926.56;5098512;27;42579;-80
2022/10/06 05:29:41;;;;;;;1.37;0.70;;;;;;;15.59;80.96;99936.78;5098659;27;42566;-79
2022/10/06 05:32:09;;;;;;;0.73;0.60;;;;;;;15.54;80.65;99932.69;5115826;27;40832;-80
2022/10/06 05:34:38;;;;;;;0.83;0.70;;;;;;;15.53;80.58;99937.16;5115901;27;42513;-80
2022/10/06 05:37:08;;;;;;;1.70;0.60;;;;;;;15.52;80.08;99945.25;5098592;27;41669;-80
2022/10/06 05:39:36;;;;;;;0.93;0.80;;;;;;;15.33;80.15;99926.94;5098940;27;41264;-79
2022/10/06 05:42:04;;;;;;;0.90;0.67;;;;;;;15.56;79.89;99954.81;5115687;27;39975;-80
2022/10/06 05:44:32;;;;;;;0.50;0.50;;;;;;;15.56;79.82;99960.16;5098327;27;42187;-79
2022/10/06 05:47:04;;;;;;;0.80;0.60;;;;;;;15.48;79.46;99943.75;5115408;27;42694;-80
2022/10/06 05:49:32;;;;;;;0.70;0.70;;;;;;;15.50;79.44;99936.50;5098688;27;41160;-80
2022/10/06 05:52:03;;;;;;;2.00;0.80;;;;;;;15.66;79.18;99971.97;5098272;27;38701;-83
2022/10/06 08:14:34;;;;;;;1.63;1.10;;;;;;;26.19;50.67;100246.09;5130627;27;20947;-82
2022/10/06 08:17:01;;;;;;;1.43;0.90;;;;;;;26.62;47.55;100253.25;5129406;27;38709;-83
2022/10/06 08:19:29;;;;;;;1.30;0.90;;;;;;;25.59;45.52;100272.31;5095183;27;40628;-83
2022/10/06 08:21:57;;;;;;;3.27;1.27;;;;;;;26.41;45.83;100283.56;5112153;27;43781;-83
2022/10/06 08:24:24;;;;;;;2.83;1.00;;;;;;;28.13;42.98;100300.00;5112259;27;43127;-82
2022/10/06 08:26:52;;;;;;;1.70;1.00;;;;;;;27.69;43.11;100252.44;5094909;27;38869;-82
2022/10/06 08:29:21;;;;;;;0.80;0.70;;;;;;;28.91;41.38;100299.25;5094988;27;42428;-82
2022/10/06 08:31:50;;;;;;;2.97;0.90;;;;;;;29.83;39.26;100306.44;5094744;27;42161;-83
2022/10/06 08:34:17;;;;;;;2.37;1.33;;;;;;;29.62;38.39;100320.81;5111908;27;41132;-82
2022/10/06 08:36:45;;;;;;;3.07;1.07;;;;;;;31.32;34.26;100347.31;5095112;27;38623;-83
2022/10/06 08:39:12;;;;;;;2.03;1.10;;;;;;;30.45;34.81;100311.63;5112209;27;40797;-83
2022/10/06 08:41:47;;;;;;;2.10;0.90;;;;;;;29.58;35.44;100340.44;5112035;27;44397;-82
2022/10/06 08:44:25;;;;;;;3.43;1.00;;;;;;;29.54;36.83;100339.16;5095045;27;42254;-83
2022/10/06 08:46:59;;;;;;;2.80;1.10;;;;;;;29.15;37.17;100333.75;5095101;27;40213;-82
2022/10/06 08:49:35;;;;;;;1.77;0.90;;;;;;;29.64;35.51;100340.59;5095000;27;43351;-83
2022/10/06 08:52:15;;;;;;;2.73;0.80;;;;;;;30.37;32.57;100358.22;5109018;27;42693;-83
2022/10/06 08:54:51;;;;;;;1.93;0.80;;;;;;;29.49;33.02;100358.78;5127319;27;42198;-82
2022/10/06 08:57:24;;;;;;;2.00;1.07;;;;;;;29.62;33.25;100369.97;5095078;27;38902;-82
2022/10/06 08:59:52;;;;;;;1.40;1.03;;;;;;;30.74;32.10;100373.72;5108992;27;41783;-83
2022/10/06 09:02:29;;;;;;;1.27;0.80;;;;;;;30.09;32.39;100374.38;5111590;27;43476;-83
2022/10/06 09:04:58;;;;;;;1.90;1.10;;;;;;;30.08;32.80;100377.28;5094643;27;41083;-83
2022/10/06 09:07:37;;;;;;;1.30;0.97;;;;;;;30.54;31.63;100381.63;5111151;27;38832;-83
2022/10/06 09:10:25;;;;;;;2.03;1.17;;;;;;;31.96;29.78;100394.78;5108549;27;42664;-83
2022/10/06 09:12:57;;;;;;;1.40;0.80;;;;;;;32.18;29.87;100390.16;5108991;27;43323;-83
2022/10/06 09:15:33;;;;;;;1.67;0.80;;;;;;;31.02;28.99;100388.44;5094374;27;40738;-82
2022/10/06 09:18:09;;;;;;;1.83;1.27;;;;;;;29.92;30.72;100398.22;5111615;27;39001;-82
2022/10/06 09:20:42;;;;;;;2.10;0.77;;;;;;;28.84;32.63;100377.34;5094352;27;40662;-83
2022/10/06 09:23:15;;;;;;;2.37;0.90;;;;;;;28.09;34.65;100364.00;5144516;27;42513;-83
2022/10/06 09:25:43;;;;;;;2.23;0.90;;;;;;;27.56;34.56;100366.41;5095349;28;43106;-83
2022/10/06 09:28:15;;;;;;;1.80;0.77;;;;;;;27.43;35.31;100367.72;5097478;28;39106;-83
2022/10/06 09:30:42;;;;;;;3.70;0.97;;;;;;;27.37;35.42;100362.94;5097422;28;42501;-83
2022/10/06 09:33:19;;;;;;;3.63;0.93;;;;;;;27.43;33.96;100375.88;5097620;28;43632;-83
2022/10/06 09:36:05;;;;;;;0.93;0.50;;;;;;;26.81;34.83;100372.59;5094511;28;42722;-83
2022/10/06 09:38:47;;;;;;;1.40;0.97;;;;;;;25.98;36.53;100349.63;5097452;28;40483;-83
2022/10/06 09:41:16;;;;;;;1.23;0.80;;;;;;;25.56;38.16;100337.72;5098172;28;41652;-83
2022/10/06 09:43:54;;;;;;;2.20;0.77;;;;;;;25.14;38.70;100335.63;5080386;28;42275;-83
2022/10/06 09:46:28;;;;;;;1.03;0.60;;;;;;;24.86;39.25;100347.44;5094538;28;43204;-82
2022/10/06 09:49:16;;;;;;;2.00;0.90;;;;;;;24.49;39.69;100345.63;5115407;28;39568;-83
2022/10/06 09:52:11;;;;;;;1.97;1.00;;;;;;;24.20;40.18;100339.44;5080800;28;41666;-83
2022/10/06 09:54:40;;;;;;;2.50;0.90;;;;;;;24.00;39.96;100334.06;5079471;28;41988;-83
2022/10/06 09:57:13;;;;;;;1.37;0.70;;;;;;;23.79;40.86;100295.50;5097151;28;41054;-82
2022/10/06 09:59:43;;;;;;;1.73;0.77;;;;;;;24.12;41.58;100333.88;5097445;28;40106;-85
2022/10/06 10:02:26;;;;;;;2.83;0.80;;;;;;;24.00;41.37;100323.22;5079550;28;43085;-82
2022/10/06 10:04:57;;;;;;;2.00;0.70;;;;;;;23.78;42.25;100342.50;5080263;28;43269;-82
2022/10/06 10:07:28;;;;;;;1.53;1.00;;;;;;;24.22;42.34;100342.84;5079955;28;41234;-82
2022/10/06 10:10:19;;;;;;;2.63;0.70;;;;;;;24.35;41.34;100346.13;5097243;28;38791;-83
2022/10/06 10:12:50;;;;;;;1.97;0.60;;;;;;;24.79;38.55;100373.44;5079216;28;40812;-82
2022/10/06 10:15:31;;;;;;;1.63;0.70;;;;;;;25.15;35.67;100367.16;5096569;28;42921;-84
2022/10/06 10:18:02;;;;;;;2.07;0.80;;;;;;;26.04;33.77;100410.63;5080023;28;40987;-81
2022/10/06 10:20:36;;;;;;;2.83;0.77;;;;;;;26.41;32.82;100366.94;5113989;27;40307;-82
2022/10/06 10:23:22;;;;;;;2.13;0.90;;;;;;;27.62;32.26;100412.84;5094976;28;42491;-82
2022/10/06 10:26:12;;;;;;;1.60;0.93;;;;;;;27.24;32.55;100399.81;5079884;28;41710;-83
2022/10/06 10:29:01;;;;;;;1.47;0.77;;;;;;;26.71;33.47;100399.03;5079333;28;42770;-82
2022/10/06 10:31:39;;;;;;;2.03;0.77;;;;;;;26.72;33.15;100400.75;5096407;28;38895;-82
2022/10/06 10:34:12;;;;;;;1.57;0.73;;;;;;;26.92;34.55;100384.19;5096773;28;41722;-82
2022/10/06 10:36:49;;;;;;;2.47;0.80;;;;;;;27.42;31.77;100409.56;5078958;28;41954;-82
2022/10/06 10:39:26;;;;;;;2.03;0.80;;;;;;;28.41;30.86;100427.72;5079552;28;42069;-82
2022/10/06 10:41:56;;;;;;;4.13;1.00;;;;;;;30.41;28.51;100435.25;5079385;28;41155;-83
2022/10/06 10:44:29;;;;;;;1.33;0.70;;;;;;;32.63;26.65;100451.91;5079457;28;41045;-83
2022/10/06 10:47:07;;;;;;;1.35;0.90;;;;;;;34.68;23.96;100466.38;5078982;28;42563;-83
2022/10/06 10:49:35;;;;;;;1.75;0.77;;;;;;;36.35;22.73;100461.72;5079279;28;41719;-83
2022/10/06 10:52:11;;;;;;;1.50;0.77;;;;;;;38.17;21.09;100483.03;5078876;28;39795;-83
2022/10/06 10:54:44;;;;;;;3.22;1.00;;;;;;;39.44;20.30;100478.59;5078939;28;43152;-83
2022/10/06 10:57:16;;;;;;;1.50;0.70;;;;;;;40.08;19.82;100473.78;5079025;28;41500;-83
2022/10/06 10:59:56;;;;;;;2.25;0.88;;;;;;;40.14;19.40;100483.91;5095846;28;41264;-81
2022/10/06 11:02:23;;;;;;;1.42;0.63;;;;;;;41.29;18.40;100474.09;5093046;28;40152;-81
2022/10/06 11:04:58;;;;;;;2.60;0.63;;;;;;;42.39;16.82;100483.16;5079249;28;42252;-82
2022/10/06 11:07:33;;;;;;;1.67;0.73;;;;;;;43.30;16.02;100484.63;5093446;28;43936;-83
2022/10/06 11:10:07;;;;;;;2.30;0.77;;;;;;;43.54;15.88;100462.66;5079052;28;43917;-83
2022/10/06 11:12:48;;;;;;;2.67;0.70;;;;;;;43.80;15.72;100457.19;5078194;28;40133;-83
2022/10/06 11:15:24;;;;;;;2.92;0.90;;;;;;;44.18;15.04;100467.88;5095741;28;40864;-83
2022/10/06 11:17:58;;;;;;;1.25;0.73;;;;;;;44.24;15.49;100466.78;5096018;28;42899;-82
2022/10/06 11:20:45;;;;;;;1.63;0.80;;;;;;;43.60;16.26;100450.47;5092618;28;42871;-81
2022/10/06 11:23:29;;;;;;;2.53;0.90;;;;;;;42.13;16.32;100452.25;5078735;28;38985;-81
2022/10/06 11:26:08;;;;;;;2.40;0.90;;;;;;;40.40;17.47;100454.66;5096154;28;41912;-81
2022/10/06 11:28:43;;;;;;;1.88;0.80;;;;;;;40.12;17.89;100441.66;5112767;28;42588;-82
2022/10/06 11:31:24;;;;;;;1.75;0.80;;;;;;;41.35;17.33;100433.28;5092715;28;42039;-81
2022/10/06 11:33:53;;;;;;;1.75;0.88;;;;;;;42.89;16.09;100461.25;5078544;28;41701;-82
2022/10/06 11:36:34;;;;;;;2.13;0.77;;;;;;;44.14;15.38;100418.44;5078638;28;41659;-81
2022/10/06 11:39:15;;;;;;;1.73;0.73;;;;;;;45.45;14.24;100459.31;5095379;28;43752;-82
2022/10/06 11:41:48;;;;;;;1.88;0.90;;;;;;;46.34;13.85;100466.63;5078874;28;41476;-82
2022/10/06 11:44:21;;;;;;;1.75;0.80;;;;;;;46.98;12.72;100454.22;5078574;28;40041;-81
2022/10/06 11:46:53;;;;;;;2.88;0.90;;;;;;;47.37;12.28;100453.16;5112321;27;40745;-82
2022/10/06 11:49:52;;;;;;;1.60;0.90;;;;;;;48.01;11.89;100454.53;5112164;28;42012;-81
2022/10/06 11:52:47;;;;;;;1.65;0.85;;;;;;;48.24;11.60;100453.63;5017154;28;41511;-82
2022/10/06 11:55:20;;;;;;;3.03;1.20;;;;;;;48.32;12.02;100450.13;5075672;28;39012;-81
2022/10/06 11:58:08;;;;;;;1.90;1.00;;;;;;;48.08;12.08;100438.16;5092988;28;41671;-81
2022/10/06 12:00:47;;;;;;;3.20;1.10;;;;;;;47.21;12.65;100432.06;5094816;28;43126;-81
2022/10/06 12:03:55;;;;;;;3.75;1.30;;;;;;;46.34;12.67;100438.59;5077760;28;42840;-82
2022/10/06 12:06:55;;;;;;;1.65;0.60;;;;;;;46.07;12.56;100432.63;5078059;28;39884;-82
2022/10/06 12:09:30;;;;;;;1.67;0.68;;;;;;;45.05;13.05;100432.28;5079237;28;40898;-82
2022/10/06 12:12:02;;;;;;;3.00;0.80;;;;;;;42.40;14.29;100429.13;5080097;28;44461;-82
2022/10/06 12:14:38;;;;;;;1.67;0.73;;;;;;;40.51;16.06;100411.22;5096761;28;41195;-82
2022/10/06 12:17:14;;;;;;;1.42;0.80;;;;;;;41.31;15.79;100391.22;5079569;28;38819;-81
2022/10/06 12:19:54;;;;;;;1.67;0.70;;;;;;;42.98;14.78;100380.72;5111354;28;41525;-83
2022/10/06 12:22:30;;;;;;;1.90;0.80;;;;;;;44.37;14.05;100393.59;5078962;28;42047;-83
2022/10/06 12:25:06;;;;;;;3.40;0.88;;;;;;;45.34;12.81;100390.50;5063235;28;41290;-85
2022/10/06 12:28:04;;;;;;;1.63;0.80;;;;;;;45.57;12.76;100377.81;5094722;28;40150;-85
2022/10/06 12:30:49;;;;;;;1.23;0.80;;;;;;;45.04;12.97;100397.91;5095638;28;40676;-82
2022/10/06 12:33:18;;;;;;;1.48;0.82;;;;;;;43.34;14.60;100390.06;5077548;28;43166;-81
2022/10/06 12:35:47;;;;;;;2.95;0.88;;;;;;;41.40;15.24;100395.25;5094982;28;43140;-84
2022/10/06 12:38:42;;;;;;;2.70;0.90;;;;;;;39.24;16.32;100385.84;5077566;28;40203;-80
2022/10/06 12:41:11;;;;;;;1.52;0.85;;;;;;;37.53;17.85;100371.16;5111212;28;40943;-80
2022/10/06 12:43:56;;;;;;;2.17;1.13;;;;;;;36.76;18.45;100369.16;5077385;28;41721;-81
2022/10/06 12:46:43;;;;;;;2.17;0.98;;;;;;;37.17;17.38;100366.56;5125344;27;42224;-84
2022/10/06 12:49:25;;;;;;;3.15;1.05;;;;;;;37.30;17.33;100365.53;5094160;28;41066;-83
2022/10/06 12:51:54;;;;;;;1.90;1.00;;;;;;;36.72;19.10;100356.91;5078045;28;41536;-81
2022/10/06 12:54:30;;;;;;;2.07;1.00;;;;;;;35.70;19.90;100334.22;5111358;28;43014;-80
2022/10/06 12:56:59;;;;;;;2.30;1.10;;;;;;;34.96;20.14;100347.75;5077342;28;42496;-81
2022/10/06 12:59:30;;;;;;;3.13;1.10;;;;;;;34.74;20.41;100347.19;5078256;28;39315;-81
2022/10/06 13:02:01;;;;;;;1.90;1.37;;;;;;;35.07;20.08;100334.16;5112615;28;41897;-81
2022/10/06 13:04:39;;;;;;;3.23;1.03;;;;;;;36.15;19.43;100323.03;5080621;28;43055;-81
2022/10/06 13:07:16;;;;;;;1.90;0.83;;;;;;;37.11;19.34;100333.44;5080952;28;42108;-81
2022/10/06 13:09:45;;;;;;;1.33;0.90;;;;;;;37.77;19.32;100338.91;5081273;28;39049;-81
2022/10/06 13:12:20;;;;;;;2.27;1.10;;;;;;;38.38;18.44;100323.81;5079778;28;41100;-81
2022/10/06 13:15:09;;;;;;;2.03;0.70;;;;;;;39.07;17.72;100345.03;5094699;28;42953;-81
2022/10/06 13:17:40;;;;;;;1.23;0.77;;;;;;;39.30;17.29;100333.03;5095006;28;42534;-81
2022/10/06 13:20:21;;;;;;;2.53;0.90;;;;;;;39.60;17.44;100343.00;5080544;28;39029;-81
2022/10/06 13:22:56;;;;;;;2.15;1.08;;;;;;;39.97;17.28;100341.47;5095325;28;41673;-81
2022/10/06 13:25:24;;;;;;;1.42;0.70;;;;;;;40.07;16.72;100338.03;5097629;28;41846;-82
2022/10/06 13:27:52;;;;;;;1.20;0.70;;;;;;;39.68;16.60;100329.59;5080512;28;41529;-81
2022/10/06 13:30:23;;;;;;;2.00;0.67;;;;;;;39.50;16.75;100354.78;5115365;28;40742;-81
2022/10/06 13:32:55;;;;;;;2.33;1.00;;;;;;;39.24;17.71;100338.72;5097215;28;41098;-81
2022/10/06 13:35:25;;;;;;;1.97;1.03;;;;;;;38.91;17.55;100334.72;5080004;28;41770;-82
2022/10/06 13:37:55;;;;;;;3.93;0.90;;;;;;;38.48;18.67;100318.50;5079963;28;43440;-82
2022/10/06 13:40:32;;;;;;;1.73;0.77;;;;;;;38.25;18.73;100316.59;5080018;28;40608;-81
2022/10/06 13:43:01;;;;;;;1.33;0.87;;;;;;;37.96;17.98;100337.72;5095307;28;42044;-82
2022/10/06 13:45:31;;;;;;;2.27;0.77;;;;;;;37.61;18.33;100334.03;5079834;28;41609;-82
2022/10/06 13:48:06;;;;;;;2.20;0.80;;;;;;;37.47;18.64;100343.59;5079929;28;41339;-82
2022/10/06 13:50:36;;;;;;;2.63;0.97;;;;;;;37.33;18.23;100338.28;5097031;28;39280;-82
2022/10/06 13:53:03;;;;;;;0.77;0.70;;;;;;;37.39;18.89;100329.03;5080059;28;40871;-82
2022/10/06 13:55:31;;;;;;;2.20;0.70;;;;;;;37.44;19.14;100314.53;5096736;28;41721;-82
2022/10/06 13:58:08;;;;;;;1.30;0.80;;;;;;;37.59;19.37;100323.19;5096684;28;42031;-81
2022/10/06 14:00:50;;;;;;;1.47;0.90;;;;;;;37.53;19.41;100320.53;5079731;28;40418;-83
2022/10/06 14:03:23;;;;;;;2.53;0.80;;;;;;;37.54;19.20;100322.22;5095564;28;41953;-81
2022/10/06 14:05:52;;;;;;;2.13;0.90;;;;;;;37.57;18.23;100327.28;5080674;28;41858;-82
2022/10/06 14:08:24;;;;;;;1.87;0.77;;;;;;;37.66;18.77;100320.38;5096684;28;42662;-81
2022/10/06 14:10:54;;;;;;;2.43;0.97;;;;;;;37.74;18.22;100328.31;5080047;28;40076;-81
2022/10/06 14:13:26;;;;;;;1.77;1.10;;;;;;;37.74;18.92;100311.72;5078874;28;41254;-81
2022/10/06 14:15:59;;;;;;;1.23;0.80;;;;;;;37.80;18.46;100321.84;5093761;28;42737;-80
2022/10/06 14:18:29;;;;;;;2.43;1.20;;;;;;;37.73;18.68;100323.84;5095589;28;42530;-81